sensor_id;sensor_type;location;lat;lon;timestamp;temperature;humidity
45785;DHT22;31489;51.404;5.474;2023-04-25T00:00:00;11.20;72.60
45785;DHT22;31489;51.404;5.474;2023-04-25T00:02:26;11.30;72.70
45785;DHT22;31489;51.404;5.474;2023-04-25T00:04:53;11.30;72.80
45785;DHT22;31489;51.404;5.474;2023-04-25T00:07:24;11.30;73.30
45785;DHT22;31489;51.404;5.474;2023-04-25T00:09:50;11.30;72.70
45785;DHT22;31489;51.404;5.474;2023-04-25T00:12:16;11.30;72.70
45785;DHT22;31489;51.404;5.474;2023-04-25T00:14:42;11.30;72.70
45785;DHT22;31489;51.404;5.474;2023-04-25T00:17:08;11.30;72.60
45785;DHT22;31489;51.404;5.474;2023-04-25T00:19:33;11.30;72.60
45785;DHT22;31489;51.404;5.474;2023-04-25T00:22:00;11.30;72.60
45785;DHT22;31489;51.404;5.474;2023-04-25T00:24:26;11.20;72.50
45785;DHT22;31489;51.404;5.474;2023-04-25T00:26:51;11.20;72.50
45785;DHT22;31489;51.404;5.474;2023-04-25T00:29:17;11.20;72.60
45785;DHT22;31489;51.404;5.474;2023-04-25T00:31:42;11.20;72.60
45785;DHT22;31489;51.404;5.474;2023-04-25T00:34:08;11.10;72.60
45785;DHT22;31489;51.404;5.474;2023-04-25T00:36:34;11.10;72.70
45785;DHT22;31489;51.404;5.474;2023-04-25T00:38:59;11.10;72.90
45785;DHT22;31489;51.404;5.474;2023-04-25T00:41:25;11.10;73.00
45785;DHT22;31489;51.404;5.474;2023-04-25T00:43:52;11.10;73.00
45785;DHT22;31489;51.404;5.474;2023-04-25T00:46:19;11.10;73.00
45785;DHT22;31489;51.404;5.474;2023-04-25T00:48:44;11.10;73.00
45785;DHT22;31489;51.404;5.474;2023-04-25T00:51:13;11.10;73.00
45785;DHT22;31489;51.404;5.474;2023-04-25T00:53:41;11.00;72.80
45785;DHT22;31489;51.404;5.474;2023-04-25T00:56:07;11.00;73.00
45785;DHT22;31489;51.404;5.474;2023-04-25T00:58:32;11.00;73.10
45785;DHT22;31489;51.404;5.474;2023-04-25T01:00:58;11.00;73.20
45785;DHT22;31489;51.404;5.474;2023-04-25T01:03:27;11.00;73.40
45785;DHT22;31489;51.404;5.474;2023-04-25T01:05:54;11.00;73.50
45785;DHT22;31489;51.404;5.474;2023-04-25T01:08:23;11.00;73.40
45785;DHT22;31489;51.404;5.474;2023-04-25T01:10:50;11.00;73.20
45785;DHT22;31489;51.404;5.474;2023-04-25T01:13:16;11.00;73.20
45785;DHT22;31489;51.404;5.474;2023-04-25T01:15:42;11.00;73.20
45785;DHT22;31489;51.404;5.474;2023-04-25T01:18:07;11.00;73.20
45785;DHT22;31489;51.404;5.474;2023-04-25T01:20:33;11.00;73.10
45785;DHT22;31489;51.404;5.474;2023-04-25T01:22:59;10.90;73.10
45785;DHT22;31489;51.404;5.474;2023-04-25T01:25:26;11.00;73.20
45785;DHT22;31489;51.404;5.474;2023-04-25T01:27:51;10.90;73.30
45785;DHT22;31489;51.404;5.474;2023-04-25T01:30:17;10.90;73.30
45785;DHT22;31489;51.404;5.474;2023-04-25T01:32:43;10.90;73.30
45785;DHT22;31489;51.404;5.474;2023-04-25T01:35:11;10.90;73.30
45785;DHT22;31489;51.404;5.474;2023-04-25T01:37:43;10.90;73.30
45785;DHT22;31489;51.404;5.474;2023-04-25T01:40:10;10.80;73.00
45785;DHT22;31489;51.404;5.474;2023-04-25T01:42:40;10.80;73.20
45785;DHT22;31489;51.404;5.474;2023-04-25T01:45:07;10.80;73.30
45785;DHT22;31489;51.404;5.474;2023-04-25T01:47:33;10.80;73.40
45785;DHT22;31489;51.404;5.474;2023-04-25T01:50:01;10.80;73.30
45785;DHT22;31489;51.404;5.474;2023-04-25T01:52:27;10.80;73.20
45785;DHT22;31489;51.404;5.474;2023-04-25T01:54:53;10.80;73.20
45785;DHT22;31489;51.404;5.474;2023-04-25T01:57:19;10.70;73.20
45785;DHT22;31489;51.404;5.474;2023-04-25T01:59:51;10.70;73.30
45785;DHT22;31489;51.404;5.474;2023-04-25T02:02:20;10.70;73.20
45785;DHT22;31489;51.404;5.474;2023-04-25T02:04:45;10.60;73.60
45785;DHT22;31489;51.404;5.474;2023-04-25T02:07:11;10.60;73.70
45785;DHT22;31489;51.404;5.474;2023-04-25T02:09:37;10.60;73.80
45785;DHT22;31489;51.404;5.474;2023-04-25T02:12:03;10.60;73.90
45785;DHT22;31489;51.404;5.474;2023-04-25T02:14:29;10.60;73.90
45785;DHT22;31489;51.404;5.474;2023-04-25T02:16:54;10.60;74.10
45785;DHT22;31489;51.404;5.474;2023-04-25T02:19:20;10.60;74.20
45785;DHT22;31489;51.404;5.474;2023-04-25T02:21:45;10.60;74.30
45785;DHT22;31489;51.404;5.474;2023-04-25T02:24:11;10.60;74.30
45785;DHT22;31489;51.404;5.474;2023-04-25T02:26:39;10.60;74.30
45785;DHT22;31489;51.404;5.474;2023-04-25T02:29:04;10.60;74.40
45785;DHT22;31489;51.404;5.474;2023-04-25T02:31:31;10.60;74.50
45785;DHT22;31489;51.404;5.474;2023-04-25T02:33:56;10.70;74.60
45785;DHT22;31489;51.404;5.474;2023-04-25T02:36:22;10.60;74.40
45785;DHT22;31489;51.404;5.474;2023-04-25T02:38:47;10.70;74.50
45785;DHT22;31489;51.404;5.474;2023-04-25T02:41:16;10.70;74.40
45785;DHT22;31489;51.404;5.474;2023-04-25T02:43:41;10.70;74.30
45785;DHT22;31489;51.404;5.474;2023-04-25T02:46:07;10.70;74.30
45785;DHT22;31489;51.404;5.474;2023-04-25T02:48:33;10.70;74.20
45785;DHT22;31489;51.404;5.474;2023-04-25T02:50:58;10.70;74.20
45785;DHT22;31489;51.404;5.474;2023-04-25T02:53:24;10.70;74.10
45785;DHT22;31489;51.404;5.474;2023-04-25T02:55:49;10.70;74.10
45785;DHT22;31489;51.404;5.474;2023-04-25T02:58:15;10.70;74.20
45785;DHT22;31489;51.404;5.474;2023-04-25T03:00:41;10.70;74.10
45785;DHT22;31489;51.404;5.474;2023-04-25T03:03:06;10.70;74.10
45785;DHT22;31489;51.404;5.474;2023-04-25T03:05:35;10.70;74.00
45785;DHT22;31489;51.404;5.474;2023-04-25T03:08:00;10.70;73.90
45785;DHT22;31489;51.404;5.474;2023-04-25T03:10:26;10.70;74.00
45785;DHT22;31489;51.404;5.474;2023-04-25T03:12:54;10.70;74.00
45785;DHT22;31489;51.404;5.474;2023-04-25T03:15:19;10.60;74.00
45785;DHT22;31489;51.404;5.474;2023-04-25T03:17:45;10.60;74.10
45785;DHT22;31489;51.404;5.474;2023-04-25T03:20:11;10.60;74.00
45785;DHT22;31489;51.404;5.474;2023-04-25T03:22:37;10.60;74.00
45785;DHT22;31489;51.404;5.474;2023-04-25T03:25:02;10.60;74.00
45785;DHT22;31489;51.404;5.474;2023-04-25T03:27:32;10.60;74.00
45785;DHT22;31489;51.404;5.474;2023-04-25T03:29:57;10.60;74.10
45785;DHT22;31489;51.404;5.474;2023-04-25T03:32:23;10.60;74.20
45785;DHT22;31489;51.404;5.474;2023-04-25T03:34:48;10.50;74.00
45785;DHT22;31489;51.404;5.474;2023-04-25T03:37:14;10.50;74.00
45785;DHT22;31489;51.404;5.474;2023-04-25T03:39:43;10.60;74.00
45785;DHT22;31489;51.404;5.474;2023-04-25T03:42:08;10.50;73.80
45785;DHT22;31489;51.404;5.474;2023-04-25T03:44:34;10.50;74.00
45785;DHT22;31489;51.404;5.474;2023-04-25T03:46:59;10.50;73.90
45785;DHT22;31489;51.404;5.474;2023-04-25T03:49:25;10.50;74.00
45785;DHT22;31489;51.404;5.474;2023-04-25T03:51:51;10.50;74.10
45785;DHT22;31489;51.404;5.474;2023-04-25T03:54:16;10.50;74.10
45785;DHT22;31489;51.404;5.474;2023-04-25T03:56:42;10.50;74.20
45785;DHT22;31489;51.404;5.474;2023-04-25T03:59:08;10.50;74.20
45785;DHT22;31489;51.404;5.474;2023-04-25T04:01:33;10.50;74.20
45785;DHT22;31489;51.404;5.474;2023-04-25T04:04:01;10.50;74.20
45785;DHT22;31489;51.404;5.474;2023-04-25T04:06:27;10.60;74.20
45785;DHT22;31489;51.404;5.474;2023-04-25T04:08:53;10.60;74.10
45785;DHT22;31489;51.404;5.474;2023-04-25T04:11:19;10.50;74.00
45785;DHT22;31489;51.404;5.474;2023-04-25T04:13:45;10.50;74.00
45785;DHT22;31489;51.404;5.474;2023-04-25T04:16:11;10.60;74.10
45785;DHT22;31489;51.404;5.474;2023-04-25T04:18:37;10.50;74.20
45785;DHT22;31489;51.404;5.474;2023-04-25T04:21:02;10.50;74.30
45785;DHT22;31489;51.404;5.474;2023-04-25T04:23:28;10.50;74.30
45785;DHT22;31489;51.404;5.474;2023-04-25T04:25:55;10.60;74.30
45785;DHT22;31489;51.404;5.474;2023-04-25T04:28:21;10.50;74.20
45785;DHT22;31489;51.404;5.474;2023-04-25T04:30:47;10.50;74.20
45785;DHT22;31489;51.404;5.474;2023-04-25T04:33:13;10.50;74.40
45785;DHT22;31489;51.404;5.474;2023-04-25T04:35:40;10.50;74.30
45785;DHT22;31489;51.404;5.474;2023-04-25T04:38:07;10.50;74.30
45785;DHT22;31489;51.404;5.474;2023-04-25T04:40:32;10.60;74.30
45785;DHT22;31489;51.404;5.474;2023-04-25T04:42:58;10.50;74.30
45785;DHT22;31489;51.404;5.474;2023-04-25T04:45:24;10.50;74.30
45785;DHT22;31489;51.404;5.474;2023-04-25T04:47:52;10.50;74.30
45785;DHT22;31489;51.404;5.474;2023-04-25T04:50:20;10.50;74.30
45785;DHT22;31489;51.404;5.474;2023-04-25T04:52:46;10.50;74.50
45785;DHT22;31489;51.404;5.474;2023-04-25T04:55:11;10.50;74.40
45785;DHT22;31489;51.404;5.474;2023-04-25T04:57:37;10.50;74.40
45785;DHT22;31489;51.404;5.474;2023-04-25T05:00:04;10.50;75.10
45785;DHT22;31489;51.404;5.474;2023-04-25T05:02:32;10.40;74.60
45785;DHT22;31489;51.404;5.474;2023-04-25T05:04:57;10.50;74.70
45785;DHT22;31489;51.404;5.474;2023-04-25T05:07:23;10.40;74.70
45785;DHT22;31489;51.404;5.474;2023-04-25T05:09:48;10.50;74.60
45785;DHT22;31489;51.404;5.474;2023-04-25T05:12:14;10.50;74.60
45785;DHT22;31489;51.404;5.474;2023-04-25T05:14:39;10.50;74.50
45785;DHT22;31489;51.404;5.474;2023-04-25T05:17:05;10.60;74.30
45785;DHT22;31489;51.404;5.474;2023-04-25T05:19:33;10.60;74.40
45785;DHT22;31489;51.404;5.474;2023-04-25T05:21:59;10.60;74.20
45785;DHT22;31489;51.404;5.474;2023-04-25T05:24:25;10.60;74.20
45785;DHT22;31489;51.404;5.474;2023-04-25T05:26:50;10.60;74.00
45785;DHT22;31489;51.404;5.474;2023-04-25T05:29:16;10.60;73.90
45785;DHT22;31489;51.404;5.474;2023-04-25T05:31:42;10.60;73.90
45785;DHT22;31489;51.404;5.474;2023-04-25T05:34:07;10.60;73.80
45785;DHT22;31489;51.404;5.474;2023-04-25T05:36:33;10.60;73.80
45785;DHT22;31489;51.404;5.474;2023-04-25T05:38:58;10.60;73.80
45785;DHT22;31489;51.404;5.474;2023-04-25T05:41:24;10.60;73.80
45785;DHT22;31489;51.404;5.474;2023-04-25T05:43:49;10.60;73.90
45785;DHT22;31489;51.404;5.474;2023-04-25T05:46:15;10.60;73.90
45785;DHT22;31489;51.404;5.474;2023-04-25T05:48:42;10.60;73.80
45785;DHT22;31489;51.404;5.474;2023-04-25T05:51:08;10.60;73.80
45785;DHT22;31489;51.404;5.474;2023-04-25T05:53:34;10.60;74.40
45785;DHT22;31489;51.404;5.474;2023-04-25T05:55:59;10.70;73.70
45785;DHT22;31489;51.404;5.474;2023-04-25T05:58:28;10.70;73.90
45785;DHT22;31489;51.404;5.474;2023-04-25T06:00:54;10.70;73.80
45785;DHT22;31489;51.404;5.474;2023-04-25T06:03:19;10.80;73.70
45785;DHT22;31489;51.404;5.474;2023-04-25T06:05:46;10.80;73.60
45785;DHT22;31489;51.404;5.474;2023-04-25T06:08:14;10.80;73.50
45785;DHT22;31489;51.404;5.474;2023-04-25T06:10:40;10.90;73.20
45785;DHT22;31489;51.404;5.474;2023-04-25T06:13:05;10.90;73.30
45785;DHT22;31489;51.404;5.474;2023-04-25T06:15:31;10.90;73.30
45785;DHT22;31489;51.404;5.474;2023-04-25T06:18:01;10.90;73.10
45785;DHT22;31489;51.404;5.474;2023-04-25T06:20:27;10.90;73.00
45785;DHT22;31489;51.404;5.474;2023-04-25T06:22:53;10.90;72.80
45785;DHT22;31489;51.404;5.474;2023-04-25T06:25:18;10.90;72.90
45785;DHT22;31489;51.404;5.474;2023-04-25T06:27:44;10.80;72.60
45785;DHT22;31489;51.404;5.474;2023-04-25T06:30:10;10.90;73.00
45785;DHT22;31489;51.404;5.474;2023-04-25T06:32:37;10.80;73.00
45785;DHT22;31489;51.404;5.474;2023-04-25T06:35:03;10.80;73.30
45785;DHT22;31489;51.404;5.474;2023-04-25T06:37:29;10.90;73.20
45785;DHT22;31489;51.404;5.474;2023-04-25T06:39:58;10.80;73.20
45785;DHT22;31489;51.404;5.474;2023-04-25T06:42:24;10.90;73.20
45785;DHT22;31489;51.404;5.474;2023-04-25T06:44:49;10.90;73.20
45785;DHT22;31489;51.404;5.474;2023-04-25T06:47:15;10.90;73.40
45785;DHT22;31489;51.404;5.474;2023-04-25T06:49:41;11.00;73.10
45785;DHT22;31489;51.404;5.474;2023-04-25T06:52:07;11.00;73.00
45785;DHT22;31489;51.404;5.474;2023-04-25T06:54:32;11.00;73.00
45785;DHT22;31489;51.404;5.474;2023-04-25T06:56:58;11.10;73.10
45785;DHT22;31489;51.404;5.474;2023-04-25T06:59:26;11.10;72.50
45785;DHT22;31489;51.404;5.474;2023-04-25T07:01:54;11.10;72.00
45785;DHT22;31489;51.404;5.474;2023-04-25T07:04:20;11.20;72.10
45785;DHT22;31489;51.404;5.474;2023-04-25T07:06:49;11.20;72.20
45785;DHT22;31489;51.404;5.474;2023-04-25T07:09:15;11.30;72.00
45785;DHT22;31489;51.404;5.474;2023-04-25T07:11:40;11.30;72.10
45785;DHT22;31489;51.404;5.474;2023-04-25T07:14:06;11.40;71.90
45785;DHT22;31489;51.404;5.474;2023-04-25T07:16:32;11.40;71.50
45785;DHT22;31489;51.404;5.474;2023-04-25T07:18:57;11.50;70.40
45785;DHT22;31489;51.404;5.474;2023-04-25T07:21:23;11.60;70.00
45785;DHT22;31489;51.404;5.474;2023-04-25T07:23:48;11.60;70.00
45785;DHT22;31489;51.404;5.474;2023-04-25T07:26:14;11.70;70.00
45785;DHT22;31489;51.404;5.474;2023-04-25T07:28:40;11.70;69.40
45785;DHT22;31489;51.404;5.474;2023-04-25T07:31:05;11.70;69.20
45785;DHT22;31489;51.404;5.474;2023-04-25T07:33:31;11.70;68.80
45785;DHT22;31489;51.404;5.474;2023-04-25T07:35:56;11.80;68.10
45785;DHT22;31489;51.404;5.474;2023-04-25T07:38:22;11.80;67.70
45785;DHT22;31489;51.404;5.474;2023-04-25T07:40:48;11.80;67.70
45785;DHT22;31489;51.404;5.474;2023-04-25T07:43:14;11.80;67.80
45785;DHT22;31489;51.404;5.474;2023-04-25T07:45:42;11.80;67.70
45785;DHT22;31489;51.404;5.474;2023-04-25T07:48:08;11.80;67.10
45785;DHT22;31489;51.404;5.474;2023-04-25T07:50:36;11.90;66.70
45785;DHT22;31489;51.404;5.474;2023-04-25T07:53:02;11.90;66.20
45785;DHT22;31489;51.404;5.474;2023-04-25T07:55:28;11.90;66.60
45785;DHT22;31489;51.404;5.474;2023-04-25T07:57:56;11.90;66.30
45785;DHT22;31489;51.404;5.474;2023-04-25T08:00:22;12.00;66.30
45785;DHT22;31489;51.404;5.474;2023-04-25T08:02:48;12.00;66.10
45785;DHT22;31489;51.404;5.474;2023-04-25T08:05:13;12.00;66.30
45785;DHT22;31489;51.404;5.474;2023-04-25T08:07:40;12.00;66.80
45785;DHT22;31489;51.404;5.474;2023-04-25T08:10:07;12.10;66.80
45785;DHT22;31489;51.404;5.474;2023-04-25T08:12:33;12.10;67.30
45785;DHT22;31489;51.404;5.474;2023-04-25T08:15:02;12.20;67.10
45785;DHT22;31489;51.404;5.474;2023-04-25T08:17:30;12.30;67.30
45785;DHT22;31489;51.404;5.474;2023-04-25T08:19:56;12.40;67.60
45785;DHT22;31489;51.404;5.474;2023-04-25T08:22:22;12.40;67.30
45785;DHT22;31489;51.404;5.474;2023-04-25T08:24:48;12.50;66.50
45785;DHT22;31489;51.404;5.474;2023-04-25T08:27:13;12.60;66.10
45785;DHT22;31489;51.404;5.474;2023-04-25T08:29:39;12.60;65.80
45785;DHT22;31489;51.404;5.474;2023-04-25T08:32:05;12.70;66.70
45785;DHT22;31489;51.404;5.474;2023-04-25T08:34:30;12.70;66.30
45785;DHT22;31489;51.404;5.474;2023-04-25T08:36:56;12.80;66.40
45785;DHT22;31489;51.404;5.474;2023-04-25T08:39:22;12.80;66.10
45785;DHT22;31489;51.404;5.474;2023-04-25T08:41:47;12.90;65.60
45785;DHT22;31489;51.404;5.474;2023-04-25T08:44:13;12.90;65.10
45785;DHT22;31489;51.404;5.474;2023-04-25T08:46:40;12.90;64.70
45785;DHT22;31489;51.404;5.474;2023-04-25T08:49:07;12.80;65.00
45785;DHT22;31489;51.404;5.474;2023-04-25T08:51:36;12.80;64.70
45785;DHT22;31489;51.404;5.474;2023-04-25T08:54:10;12.80;64.60
45785;DHT22;31489;51.404;5.474;2023-04-25T08:56:39;12.70;64.20
45785;DHT22;31489;51.404;5.474;2023-04-25T08:59:06;12.70;64.90
45785;DHT22;31489;51.404;5.474;2023-04-25T09:01:34;12.70;64.90
45785;DHT22;31489;51.404;5.474;2023-04-25T09:04:01;12.70;64.40
45785;DHT22;31489;51.404;5.474;2023-04-25T09:06:28;12.70;64.90
45785;DHT22;31489;51.404;5.474;2023-04-25T09:08:54;12.70;65.20
45785;DHT22;31489;51.404;5.474;2023-04-25T09:11:19;12.80;65.20
45785;DHT22;31489;51.404;5.474;2023-04-25T09:13:45;12.80;64.60
45785;DHT22;31489;51.404;5.474;2023-04-25T09:16:11;12.90;65.60
45785;DHT22;31489;51.404;5.474;2023-04-25T09:18:37;12.90;65.20
45785;DHT22;31489;51.404;5.474;2023-04-25T09:21:11;13.00;64.10
45785;DHT22;31489;51.404;5.474;2023-04-25T09:23:55;13.10;62.50
45785;DHT22;31489;51.404;5.474;2023-04-25T09:26:21;13.10;62.50
45785;DHT22;31489;51.404;5.474;2023-04-25T09:29:04;13.20;63.10
45785;DHT22;31489;51.404;5.474;2023-04-25T09:31:33;13.30;62.80
45785;DHT22;31489;51.404;5.474;2023-04-25T09:33:59;13.40;63.10
45785;DHT22;31489;51.404;5.474;2023-04-25T09:36:30;13.40;62.80
45785;DHT22;31489;51.404;5.474;2023-04-25T09:38:55;13.60;62.80
45785;DHT22;31489;51.404;5.474;2023-04-25T09:41:24;13.70;63.70
45785;DHT22;31489;51.404;5.474;2023-04-25T09:43:50;13.80;62.50
45785;DHT22;31489;51.404;5.474;2023-04-25T09:46:16;13.90;62.50
45785;DHT22;31489;51.404;5.474;2023-04-25T09:48:53;14.10;62.70
45785;DHT22;31489;51.404;5.474;2023-04-25T09:51:19;14.20;60.80
45785;DHT22;31489;51.404;5.474;2023-04-25T09:53:46;14.30;63.20
45785;DHT22;31489;51.404;5.474;2023-04-25T09:56:15;14.40;61.40
45785;DHT22;31489;51.404;5.474;2023-04-25T09:58:41;14.60;60.10
45785;DHT22;31489;51.404;5.474;2023-04-25T10:01:09;14.70;60.00
45785;DHT22;31489;51.404;5.474;2023-04-25T10:03:37;14.70;60.90
45785;DHT22;31489;51.404;5.474;2023-04-25T10:06:12;14.80;60.60
45785;DHT22;31489;51.404;5.474;2023-04-25T10:08:40;14.90;60.70
45785;DHT22;31489;51.404;5.474;2023-04-25T10:11:08;15.00;61.30
45785;DHT22;31489;51.404;5.474;2023-04-25T10:13:35;15.10;59.70
45785;DHT22;31489;51.404;5.474;2023-04-25T10:16:04;15.20;59.50
45785;DHT22;31489;51.404;5.474;2023-04-25T10:18:31;15.30;59.60
45785;DHT22;31489;51.404;5.474;2023-04-25T10:21:04;15.30;59.30
45785;DHT22;31489;51.404;5.474;2023-04-25T10:23:31;15.30;59.00
45785;DHT22;31489;51.404;5.474;2023-04-25T10:26:03;15.50;60.50
45785;DHT22;31489;51.404;5.474;2023-04-25T10:28:29;15.50;60.40
45785;DHT22;31489;51.404;5.474;2023-04-25T10:31:06;15.60;60.30
45785;DHT22;31489;51.404;5.474;2023-04-25T10:36:15;15.70;61.40
45785;DHT22;31489;51.404;5.474;2023-04-25T10:38:44;15.90;58.20
45785;DHT22;31489;51.404;5.474;2023-04-25T10:41:10;16.00;58.60
45785;DHT22;31489;51.404;5.474;2023-04-25T10:43:44;16.10;59.30
45785;DHT22;31489;51.404;5.474;2023-04-25T10:48:55;16.60;58.20
45785;DHT22;31489;51.404;5.474;2023-04-25T10:51:31;16.80;56.90
45785;DHT22;31489;51.404;5.474;2023-04-25T10:54:05;17.00;54.90
45785;DHT22;31489;51.404;5.474;2023-04-25T10:56:39;17.00;53.70
45785;DHT22;31489;51.404;5.474;2023-04-25T10:59:17;17.00;53.60
45785;DHT22;31489;51.404;5.474;2023-04-25T11:01:47;16.80;52.80
45785;DHT22;31489;51.404;5.474;2023-04-25T11:04:33;16.70;54.20
45785;DHT22;31489;51.404;5.474;2023-04-25T11:09:28;16.40;52.60
45785;DHT22;31489;51.404;5.474;2023-04-25T11:11:54;16.20;53.10
45785;DHT22;31489;51.404;5.474;2023-04-25T11:14:21;16.10;54.00
45785;DHT22;31489;51.404;5.474;2023-04-25T11:16:47;15.90;54.10
45785;DHT22;31489;51.404;5.474;2023-04-25T11:19:13;15.80;54.40
45785;DHT22;31489;51.404;5.474;2023-04-25T11:21:38;15.70;54.90
45785;DHT22;31489;51.404;5.474;2023-04-25T11:24:04;15.60;54.80
45785;DHT22;31489;51.404;5.474;2023-04-25T11:26:32;15.60;55.10
45785;DHT22;31489;51.404;5.474;2023-04-25T11:28:58;15.70;56.40
45785;DHT22;31489;51.404;5.474;2023-04-25T11:31:31;15.80;55.90
45785;DHT22;31489;51.404;5.474;2023-04-25T11:33:57;15.90;55.40
45785;DHT22;31489;51.404;5.474;2023-04-25T11:36:24;16.00;55.00
45785;DHT22;31489;51.404;5.474;2023-04-25T11:38:53;16.00;55.40
45785;DHT22;31489;51.404;5.474;2023-04-25T11:41:20;15.90;53.70
45785;DHT22;31489;51.404;5.474;2023-04-25T11:43:48;15.90;54.20
45785;DHT22;31489;51.404;5.474;2023-04-25T11:46:14;15.70;54.60
45785;DHT22;31489;51.404;5.474;2023-04-25T11:48:40;15.60;55.50
45785;DHT22;31489;51.404;5.474;2023-04-25T11:51:06;15.50;55.50
45785;DHT22;31489;51.404;5.474;2023-04-25T11:53:32;15.30;56.60
45785;DHT22;31489;51.404;5.474;2023-04-25T11:55:58;15.20;55.60
45785;DHT22;31489;51.404;5.474;2023-04-25T11:58:25;15.10;56.00
45785;DHT22;31489;51.404;5.474;2023-04-25T12:00:51;15.00;55.90
45785;DHT22;31489;51.404;5.474;2023-04-25T12:03:18;14.80;56.50
45785;DHT22;31489;51.404;5.474;2023-04-25T12:05:45;14.80;56.40
45785;DHT22;31489;51.404;5.474;2023-04-25T12:08:12;14.70;56.20
45785;DHT22;31489;51.404;5.474;2023-04-25T12:10:39;14.70;56.60
45785;DHT22;31489;51.404;5.474;2023-04-25T12:13:23;14.80;57.40
45785;DHT22;31489;51.404;5.474;2023-04-25T12:15:49;14.90;55.70
45785;DHT22;31489;51.404;5.474;2023-04-25T12:18:18;15.10;58.20
45785;DHT22;31489;51.404;5.474;2023-04-25T12:20:43;15.20;58.20
45785;DHT22;31489;51.404;5.474;2023-04-25T12:23:12;15.50;58.50
45785;DHT22;31489;51.404;5.474;2023-04-25T12:25:47;15.60;57.70
45785;DHT22;31489;51.404;5.474;2023-04-25T12:28:20;15.80;55.20
45785;DHT22;31489;51.404;5.474;2023-04-25T12:33:26;15.90;54.40
45785;DHT22;31489;51.404;5.474;2023-04-25T12:35:53;16.00;56.10
45785;DHT22;31489;51.404;5.474;2023-04-25T12:38:27;16.00;55.30
45785;DHT22;31489;51.404;5.474;2023-04-25T12:40:54;16.00;54.90
45785;DHT22;31489;51.404;5.474;2023-04-25T12:43:20;16.10;55.50
45785;DHT22;31489;51.404;5.474;2023-04-25T12:45:51;16.10;54.50
45785;DHT22;31489;51.404;5.474;2023-04-25T12:48:17;16.10;53.10
45785;DHT22;31489;51.404;5.474;2023-04-25T12:50:43;16.10;54.00
45785;DHT22;31489;51.404;5.474;2023-04-25T12:53:11;16.20;54.30
45785;DHT22;31489;51.404;5.474;2023-04-25T12:55:37;16.20;55.80
45785;DHT22;31489;51.404;5.474;2023-04-25T12:58:03;16.30;53.90
45785;DHT22;31489;51.404;5.474;2023-04-25T13:00:29;16.50;53.80
45785;DHT22;31489;51.404;5.474;2023-04-25T13:02:56;16.60;52.70
45785;DHT22;31489;51.404;5.474;2023-04-25T13:05:25;16.60;51.80
45785;DHT22;31489;51.404;5.474;2023-04-25T13:07:51;16.50;50.30
45785;DHT22;31489;51.404;5.474;2023-04-25T13:10:17;16.40;50.90
45785;DHT22;31489;51.404;5.474;2023-04-25T13:12:46;16.30;51.10
45785;DHT22;31489;51.404;5.474;2023-04-25T13:15:14;16.20;50.70
45785;DHT22;31489;51.404;5.474;2023-04-25T13:17:41;16.10;50.50
45785;DHT22;31489;51.404;5.474;2023-04-25T13:20:07;16.00;50.90
45785;DHT22;31489;51.404;5.474;2023-04-25T13:22:38;15.90;51.90
45785;DHT22;31489;51.404;5.474;2023-04-25T13:25:08;15.90;50.30
45785;DHT22;31489;51.404;5.474;2023-04-25T13:27:35;15.80;51.20
45785;DHT22;31489;51.404;5.474;2023-04-25T13:30:02;15.80;50.90
45785;DHT22;31489;51.404;5.474;2023-04-25T13:32:38;15.80;51.90
45785;DHT22;31489;51.404;5.474;2023-04-25T13:35:06;15.70;52.30
45785;DHT22;31489;51.404;5.474;2023-04-25T13:37:32;15.70;51.90
45785;DHT22;31489;51.404;5.474;2023-04-25T13:40:05;15.70;51.90
45785;DHT22;31489;51.404;5.474;2023-04-25T13:42:33;15.70;52.10
45785;DHT22;31489;51.404;5.474;2023-04-25T13:44:58;15.70;53.20
45785;DHT22;31489;51.404;5.474;2023-04-25T13:47:25;15.70;54.00
45785;DHT22;31489;51.404;5.474;2023-04-25T13:49:52;15.80;53.80
45785;DHT22;31489;51.404;5.474;2023-04-25T13:52:17;15.90;54.10
45785;DHT22;31489;51.404;5.474;2023-04-25T13:54:43;16.10;53.50
45785;DHT22;31489;51.404;5.474;2023-04-25T13:57:09;16.30;54.30
45785;DHT22;31489;51.404;5.474;2023-04-25T13:59:37;16.60;55.10
45785;DHT22;31489;51.404;5.474;2023-04-25T14:02:02;16.80;53.70
45785;DHT22;31489;51.404;5.474;2023-04-25T14:04:28;17.00;53.60
45785;DHT22;31489;51.404;5.474;2023-04-25T14:06:55;17.20;53.50
45785;DHT22;31489;51.404;5.474;2023-04-25T14:09:21;17.40;52.60
45785;DHT22;31489;51.404;5.474;2023-04-25T14:11:51;17.50;52.70
45785;DHT22;31489;51.404;5.474;2023-04-25T14:14:18;17.60;51.00
45785;DHT22;31489;51.404;5.474;2023-04-25T14:16:44;17.70;51.50
45785;DHT22;31489;51.404;5.474;2023-04-25T14:19:10;17.70;50.70
45785;DHT22;31489;51.404;5.474;2023-04-25T14:21:35;17.80;50.60
45785;DHT22;31489;51.404;5.474;2023-04-25T14:24:03;17.80;50.00
45785;DHT22;31489;51.404;5.474;2023-04-25T14:26:30;17.70;49.10
45785;DHT22;31489;51.404;5.474;2023-04-25T14:28:55;17.70;50.40
45785;DHT22;31489;51.404;5.474;2023-04-25T14:31:21;17.80;49.80
45785;DHT22;31489;51.404;5.474;2023-04-25T14:33:47;17.80;49.70
45785;DHT22;31489;51.404;5.474;2023-04-25T14:36:13;17.70;50.20
45785;DHT22;31489;51.404;5.474;2023-04-25T14:38:48;17.70;50.70
45785;DHT22;31489;51.404;5.474;2023-04-25T14:41:16;17.70;49.20
45785;DHT22;31489;51.404;5.474;2023-04-25T14:43:48;17.70;50.40
45785;DHT22;31489;51.404;5.474;2023-04-25T14:46:18;17.50;49.50
45785;DHT22;31489;51.404;5.474;2023-04-25T14:48:44;17.40;49.60
45785;DHT22;31489;51.404;5.474;2023-04-25T14:51:13;17.30;49.60
45785;DHT22;31489;51.404;5.474;2023-04-25T14:53:40;17.10;49.20
45785;DHT22;31489;51.404;5.474;2023-04-25T14:56:06;16.90;48.80
45785;DHT22;31489;51.404;5.474;2023-04-25T14:58:32;16.70;49.50
45785;DHT22;31489;51.404;5.474;2023-04-25T15:00:59;16.60;49.10
45785;DHT22;31489;51.404;5.474;2023-04-25T15:03:24;16.50;49.30
45785;DHT22;31489;51.404;5.474;2023-04-25T15:05:50;16.30;48.70
45785;DHT22;31489;51.404;5.474;2023-04-25T15:08:16;16.20;48.50
45785;DHT22;31489;51.404;5.474;2023-04-25T15:10:41;16.10;48.50
45785;DHT22;31489;51.404;5.474;2023-04-25T15:13:07;16.00;48.80
45785;DHT22;31489;51.404;5.474;2023-04-25T15:15:35;16.00;49.30
45785;DHT22;31489;51.404;5.474;2023-04-25T15:18:03;16.00;49.40
45785;DHT22;31489;51.404;5.474;2023-04-25T15:20:29;15.90;48.90
45785;DHT22;31489;51.404;5.474;2023-04-25T15:22:55;15.90;48.80
45785;DHT22;31489;51.404;5.474;2023-04-25T15:25:21;15.90;49.40
45785;DHT22;31489;51.404;5.474;2023-04-25T15:27:46;15.90;49.40
45785;DHT22;31489;51.404;5.474;2023-04-25T15:30:17;15.90;50.00
45785;DHT22;31489;51.404;5.474;2023-04-25T15:32:49;15.90;50.70
45785;DHT22;31489;51.404;5.474;2023-04-25T15:35:14;16.00;49.10
45785;DHT22;31489;51.404;5.474;2023-04-25T15:37:40;16.10;49.60